createdAt,value
2023-03-17T00:00:50.032Z,1.37
2023-03-17T00:01:50.022Z,1.40
2023-03-17T00:02:50.091Z,1.41
2023-03-17T00:03:50.101Z,1.37
2023-03-17T00:04:49.992Z,1.34
2023-03-17T00:05:49.979Z,1.22
2023-03-17T00:06:49.978Z,1.16
2023-03-17T00:07:49.967Z,1.16
2023-03-17T00:08:49.953Z,1.20
2023-03-17T00:09:49.923Z,1.23
2023-03-17T00:10:49.942Z,1.24
2023-03-17T00:11:49.895Z,1.24
2023-03-17T00:12:49.900Z,1.26
2023-03-17T00:13:49.883Z,1.30
2023-03-17T00:14:49.858Z,1.31
2023-03-17T00:15:49.876Z,1.32
2023-03-17T00:16:49.992Z,1.30
2023-03-17T00:17:49.825Z,1.34
2023-03-17T00:18:49.809Z,1.26
2023-03-17T00:19:49.804Z,1.32
2023-03-17T00:20:49.782Z,1.32
2023-03-17T00:21:49.768Z,1.28
2023-03-17T00:22:49.764Z,1.24
2023-03-17T00:23:49.747Z,1.20
2023-03-17T00:24:49.742Z,1.14
2023-03-17T00:25:49.737Z,1.02
2023-03-17T00:26:49.736Z,0.99
2023-03-17T00:27:49.709Z,0.95
2023-03-17T00:28:49.688Z,0.94
2023-03-17T00:29:49.676Z,0.87
2023-03-17T00:30:49.660Z,0.80
2023-03-17T00:31:49.652Z,0.80
2023-03-17T00:32:49.685Z,0.81
2023-03-17T00:33:49.628Z,0.86
2023-03-17T00:34:49.600Z,0.94
2023-03-17T00:35:49.591Z,1.02
2023-03-17T00:36:49.616Z,1.05
2023-03-17T00:37:49.568Z,1.06
2023-03-17T00:38:49.562Z,1.10
2023-03-17T00:39:49.539Z,1.16
2023-03-17T00:40:49.538Z,1.13
2023-03-17T00:41:49.508Z,1.14
2023-03-17T00:42:49.540Z,1.17
2023-03-17T00:43:49.500Z,1.08
2023-03-17T00:44:49.480Z,1.13
2023-03-17T00:45:49.480Z,1.08
2023-03-17T00:46:49.500Z,1.10
2023-03-17T00:47:49.445Z,1.06
2023-03-17T00:48:49.430Z,1.02
2023-03-17T00:49:49.436Z,1.04
2023-03-17T00:50:49.399Z,1.04
2023-03-17T00:51:49.384Z,1.02
2023-03-17T00:52:49.378Z,1.01
2023-03-17T00:53:49.365Z,0.98
2023-03-17T00:54:49.352Z,0.98
2023-03-17T00:55:49.348Z,1.01
2023-03-17T00:56:49.332Z,0.98
2023-03-17T00:57:49.326Z,1.04
2023-03-17T00:58:49.330Z,0.98
2023-03-17T00:59:49.294Z,0.91
2023-03-17T01:00:49.429Z,0.94
2023-03-17T01:01:49.398Z,0.94
2023-03-17T01:02:49.253Z,0.95
2023-03-17T01:03:49.231Z,0.88
2023-03-17T01:04:59.606Z,0.87
2023-03-17T01:05:50.239Z,0.84
2023-03-17T01:06:49.196Z,0.78
2023-03-17T01:07:49.191Z,0.84
2023-03-17T01:08:49.170Z,0.83
2023-03-17T01:09:49.171Z,0.83
2023-03-17T01:10:49.150Z,0.91
2023-03-17T01:11:49.150Z,0.92
2023-03-17T01:12:49.128Z,0.96
2023-03-17T01:13:49.108Z,0.95
2023-03-17T01:14:49.136Z,1.06
2023-03-17T01:15:49.082Z,1.12
2023-03-17T01:16:49.106Z,1.13
2023-03-17T01:17:49.059Z,1.20
2023-03-17T01:18:49.104Z,1.23
2023-03-17T01:19:49.048Z,1.24
2023-03-17T01:20:49.029Z,1.14
2023-03-17T01:21:49.026Z,1.06
2023-03-17T01:22:48.995Z,1.01
2023-03-17T01:23:48.984Z,0.98
2023-03-17T01:24:48.971Z,0.94
2023-03-17T01:25:48.975Z,0.98
2023-03-17T01:26:48.951Z,0.98
2023-03-17T01:27:48.944Z,1.05
2023-03-17T01:28:48.927Z,1.02
2023-03-17T01:29:48.918Z,1.05
2023-03-17T01:30:48.929Z,1.05
2023-03-17T01:31:48.955Z,1.04
2023-03-17T01:32:48.939Z,1.04
2023-03-17T01:33:48.864Z,1.05
2023-03-17T01:34:48.848Z,1.08
2023-03-17T01:35:48.873Z,1.02
2023-03-17T01:36:48.832Z,0.99
2023-03-17T01:37:48.823Z,0.94
2023-03-17T01:38:48.803Z,0.84
2023-03-17T01:39:48.794Z,0.78
2023-03-17T01:40:48.785Z,0.69
2023-03-17T01:41:48.763Z,0.68
2023-03-17T01:42:48.751Z,0.66
2023-03-17T01:43:48.741Z,0.68
2023-03-17T01:44:48.734Z,0.69
2023-03-17T01:45:48.759Z,0.76
2023-03-17T01:46:48.734Z,0.76
2023-03-17T01:47:48.698Z,0.83
2023-03-17T01:48:48.684Z,0.86
2023-03-17T01:49:48.683Z,0.91
2023-03-17T01:50:48.658Z,0.96
2023-03-17T01:51:48.649Z,0.98
2023-03-17T01:52:48.635Z,0.98
2023-03-17T01:53:48.619Z,0.98
2023-03-17T01:54:48.610Z,0.96
2023-03-17T01:55:48.615Z,0.94
2023-03-17T01:56:48.587Z,0.91
2023-03-17T01:57:48.605Z,0.88
2023-03-17T01:58:48.558Z,0.94
2023-03-17T01:59:48.570Z,0.99
2023-03-17T02:00:48.582Z,0.99
2023-03-17T02:01:48.538Z,0.98
2023-03-17T02:02:48.540Z,1.06
2023-03-17T02:03:48.525Z,1.12
2023-03-17T02:04:48.485Z,1.08
2023-03-17T02:05:48.476Z,1.12
2023-03-17T02:06:57.457Z,1.06
2023-03-17T02:07:49.472Z,1.01
2023-03-17T02:08:48.436Z,0.99
2023-03-17T02:09:48.423Z,0.95
2023-03-17T02:10:48.405Z,0.87
2023-03-17T02:11:48.407Z,0.80
2023-03-17T02:12:48.385Z,0.80
2023-03-17T02:13:48.376Z,0.81
2023-03-17T02:14:48.357Z,0.84
2023-03-17T02:15:48.354Z,0.81
2023-03-17T02:16:48.386Z,0.80
2023-03-17T02:17:48.323Z,0.81
2023-03-17T02:18:48.330Z,0.78
2023-03-17T02:19:48.290Z,0.81
2023-03-17T02:20:48.279Z,0.83
2023-03-17T02:21:48.269Z,0.83
2023-03-17T02:22:48.300Z,0.83
2023-03-17T02:23:48.243Z,0.84
2023-03-17T02:24:48.244Z,0.91
2023-03-17T02:25:48.222Z,0.96
2023-03-17T02:26:48.209Z,0.99
2023-03-17T02:27:48.211Z,0.99
2023-03-17T02:28:48.189Z,1.04
2023-03-17T02:29:48.196Z,1.08
2023-03-17T02:30:48.184Z,1.01
2023-03-17T02:31:48.153Z,1.04
2023-03-17T02:32:48.142Z,0.99
2023-03-17T02:33:48.129Z,0.99
2023-03-17T02:34:48.152Z,0.91
2023-03-17T02:35:48.178Z,0.96
2023-03-17T02:36:48.171Z,0.94
2023-03-17T02:37:48.075Z,0.92
2023-03-17T02:38:48.063Z,0.95
2023-03-17T02:39:48.045Z,0.92
2023-03-17T02:40:48.031Z,0.91
2023-03-17T02:41:48.025Z,0.91
2023-03-17T02:42:48.015Z,0.83
2023-03-17T02:43:48.007Z,0.77
2023-03-17T02:44:48.006Z,0.76
2023-03-17T02:45:48.006Z,0.80
2023-03-17T02:46:47.963Z,0.80
2023-03-17T02:47:47.949Z,0.81
2023-03-17T02:48:47.936Z,0.78
2023-03-17T02:49:47.922Z,0.76
2023-03-17T02:50:47.935Z,0.80
2023-03-17T02:51:47.896Z,0.86
2023-03-17T02:52:47.878Z,0.84
2023-03-17T02:53:47.874Z,0.81
2023-03-17T02:54:47.855Z,0.84
2023-03-17T02:55:47.849Z,0.83
2023-03-17T02:56:47.847Z,0.78
2023-03-17T02:57:47.818Z,0.76
2023-03-17T02:58:47.820Z,0.76
2023-03-17T02:59:47.788Z,0.77
2023-03-17T03:00:47.780Z,0.76
2023-03-17T03:01:47.867Z,0.70
2023-03-17T03:02:47.918Z,0.66
2023-03-17T03:03:47.741Z,0.69
2023-03-17T03:04:47.765Z,0.74
2023-03-17T03:05:47.720Z,0.76
2023-03-17T03:06:47.815Z,0.78
2023-03-17T03:07:47.698Z,0.80
2023-03-17T03:08:47.676Z,0.84
2023-03-17T03:09:47.677Z,0.86
2023-03-17T03:10:47.660Z,0.81
2023-03-17T03:11:47.653Z,0.77
2023-03-17T03:12:47.636Z,0.77
2023-03-17T03:13:47.614Z,0.78
2023-03-17T03:14:47.599Z,0.74
2023-03-17T03:15:47.628Z,0.69
2023-03-17T03:16:47.589Z,0.66
2023-03-17T03:17:47.563Z,0.68
2023-03-17T03:18:47.551Z,0.68
2023-03-17T03:19:47.544Z,0.73
2023-03-17T03:20:47.536Z,0.77
2023-03-17T03:21:47.525Z,0.80
2023-03-17T03:22:47.533Z,0.73
2023-03-17T03:23:47.494Z,0.69
2023-03-17T03:24:47.493Z,0.78
2023-03-17T03:25:47.472Z,0.78
2023-03-17T03:26:47.449Z,0.81
2023-03-17T03:27:47.472Z,0.80
2023-03-17T03:28:47.433Z,0.77
2023-03-17T03:29:47.418Z,0.78
2023-03-17T03:30:47.443Z,0.70
2023-03-17T03:31:47.386Z,0.73
2023-03-17T03:32:47.420Z,0.76
2023-03-17T03:33:47.360Z,0.74
2023-03-17T03:34:47.346Z,0.77
2023-03-17T03:35:47.343Z,0.78
2023-03-17T03:36:47.332Z,0.77
2023-03-17T03:37:47.318Z,0.83
2023-03-17T03:38:47.329Z,0.86
2023-03-17T03:39:47.282Z,0.91
2023-03-17T03:40:47.281Z,0.98
2023-03-17T03:41:47.263Z,0.98
2023-03-17T03:42:47.252Z,0.98
2023-03-17T03:43:47.241Z,0.99
2023-03-17T03:44:47.224Z,1.01
2023-03-17T03:45:47.214Z,0.95
2023-03-17T03:46:47.281Z,0.94
2023-03-17T03:47:47.174Z,0.91
2023-03-17T03:48:47.171Z,0.87
2023-03-17T03:49:47.154Z,0.92
2023-03-17T03:50:47.141Z,0.88
2023-03-17T03:51:47.130Z,0.91
2023-03-17T03:52:47.107Z,0.95
2023-03-17T03:53:47.104Z,0.91
2023-03-17T03:54:47.124Z,0.87
2023-03-17T03:55:47.109Z,0.83
2023-03-17T03:56:47.062Z,0.76
2023-03-17T03:57:47.053Z,0.69
2023-03-17T03:58:47.035Z,0.69
2023-03-17T03:59:47.026Z,0.66
2023-03-17T04:00:47.007Z,0.74
2023-03-17T04:01:47.026Z,0.76
2023-03-17T04:02:47.071Z,0.77
2023-03-17T04:03:46.987Z,0.70
2023-03-17T04:04:47.068Z,0.70
2023-03-17T04:05:46.980Z,0.60
2023-03-17T04:06:46.937Z,0.63
2023-03-17T04:07:46.939Z,0.63
2023-03-17T04:08:46.906Z,0.60
2023-03-17T04:09:46.908Z,0.58
2023-03-17T04:10:46.909Z,0.56
2023-03-17T04:11:46.906Z,0.55
2023-03-17T04:12:46.856Z,0.56
2023-03-17T04:13:46.850Z,0.59
2023-03-17T04:14:46.835Z,0.62
2023-03-17T04:15:46.821Z,0.65
2023-03-17T04:16:46.801Z,0.60
2023-03-17T04:17:46.798Z,0.59
2023-03-17T04:18:46.815Z,0.62
2023-03-17T04:19:46.780Z,0.56
2023-03-17T04:20:46.772Z,0.56
2023-03-17T04:21:46.750Z,0.56
2023-03-17T04:22:46.726Z,0.50
2023-03-17T04:23:46.735Z,0.52
2023-03-17T04:24:46.709Z,0.52
2023-03-17T04:25:46.700Z,0.43
2023-03-17T04:26:46.711Z,0.46
2023-03-17T04:27:46.712Z,0.50
2023-03-17T04:28:46.664Z,0.49
2023-03-17T04:29:46.640Z,0.40
2023-03-17T04:30:46.634Z,0.43
2023-03-17T04:31:46.715Z,0.46
2023-03-17T04:32:46.727Z,0.40
2023-03-17T04:33:46.590Z,0.44
2023-03-17T04:34:46.600Z,0.43
2023-03-17T04:35:46.644Z,0.44
2023-03-17T04:36:46.554Z,0.37
2023-03-17T04:37:46.543Z,0.34
2023-03-17T04:38:46.543Z,0.37
2023-03-17T04:39:46.525Z,0.37
2023-03-17T04:40:46.511Z,0.34
2023-03-17T04:41:46.514Z,0.32
2023-03-17T04:42:46.511Z,0.29
2023-03-17T04:43:46.466Z,0.28
2023-03-17T04:44:46.463Z,0.31
2023-03-17T04:45:46.504Z,0.28
2023-03-17T04:46:46.439Z,0.31
2023-03-17T04:47:46.500Z,0.39
2023-03-17T04:48:46.405Z,0.44
2023-03-17T04:49:46.397Z,0.46
2023-03-17T04:50:46.375Z,0.39
2023-03-17T04:51:46.361Z,0.43
2023-03-17T04:52:46.355Z,0.37
2023-03-17T04:53:46.345Z,0.34
2023-03-17T04:54:46.332Z,0.37
2023-03-17T04:55:46.318Z,0.34
2023-03-17T04:56:46.301Z,0.31
2023-03-17T04:57:46.283Z,0.32
2023-03-17T04:58:46.315Z,0.29
2023-03-17T04:59:46.266Z,0.31
2023-03-17T05:00:46.262Z,0.32
2023-03-17T05:01:46.253Z,0.43
2023-03-17T05:02:46.236Z,0.36
2023-03-17T05:03:46.210Z,0.36
2023-03-17T05:04:46.200Z,0.36
2023-03-17T05:05:46.187Z,0.37
2023-03-17T05:06:46.172Z,0.32
2023-03-17T05:07:46.163Z,0.25
2023-03-17T05:08:46.152Z,0.32
2023-03-17T05:09:46.132Z,0.28
2023-03-17T05:10:46.146Z,0.26
2023-03-17T05:11:46.117Z,0.22
2023-03-17T05:12:46.106Z,0.25
2023-03-17T05:13:46.082Z,0.22
2023-03-17T05:14:46.096Z,0.25
2023-03-17T05:15:46.066Z,0.29
2023-03-17T05:16:46.098Z,0.22
2023-03-17T05:17:46.042Z,0.23
2023-03-17T05:18:46.017Z,0.26
2023-03-17T05:19:46.004Z,0.22
2023-03-17T05:20:46.005Z,0.19
2023-03-17T05:21:45.980Z,0.15
2023-03-17T05:22:45.975Z,0.15
2023-03-17T05:23:45.964Z,0.16
2023-03-17T05:24:45.940Z,0.15
2023-03-17T05:25:45.941Z,0.10
2023-03-17T05:26:45.916Z,0.11
2023-03-17T05:27:45.909Z,0.12
2023-03-17T05:28:45.891Z,0.11
2023-03-17T05:29:45.879Z,0.07
2023-03-17T05:30:45.976Z,0.10
2023-03-17T05:31:45.860Z,0.12
2023-03-17T05:32:45.889Z,0.15
2023-03-17T05:33:45.832Z,0.16
2023-03-17T05:34:45.834Z,0.18
2023-03-17T05:35:45.836Z,0.18
2023-03-17T05:36:45.790Z,0.21
2023-03-17T05:37:45.798Z,0.18
2023-03-17T05:38:45.794Z,0.21
2023-03-17T05:39:45.765Z,0.23
2023-03-17T05:40:45.737Z,0.19
2023-03-17T05:41:45.737Z,0.18
2023-03-17T05:42:45.725Z,0.16
2023-03-17T05:43:45.712Z,0.19
2023-03-17T05:44:45.686Z,0.23
2023-03-17T05:45:45.724Z,0.22
2023-03-17T05:46:45.709Z,0.19
2023-03-17T05:47:45.689Z,0.22
2023-03-17T05:48:45.641Z,0.25
2023-03-17T05:49:45.628Z,0.25
2023-03-17T05:50:45.609Z,0.25
2023-03-17T05:51:45.595Z,0.26
2023-03-17T05:52:45.597Z,0.26
2023-03-17T05:53:45.569Z,0.31
2023-03-17T05:54:45.556Z,0.29
2023-03-17T05:55:45.552Z,0.32
2023-03-17T05:56:45.539Z,0.34
2023-03-17T05:57:45.527Z,0.37
2023-03-17T05:58:45.504Z,0.40
2023-03-17T05:59:45.519Z,0.40
2023-03-17T06:00:45.485Z,0.40
2023-03-17T06:01:45.477Z,0.39
2023-03-17T06:02:45.561Z,0.44
2023-03-17T06:03:45.505Z,0.44
2023-03-17T06:04:45.431Z,0.47
2023-03-17T06:05:45.423Z,0.47
2023-03-17T06:06:45.438Z,0.47
2023-03-17T06:07:54.051Z,0.55
2023-03-17T06:08:46.435Z,0.62
2023-03-17T06:09:45.371Z,0.62
2023-03-17T06:10:45.360Z,0.66
2023-03-17T06:11:45.346Z,0.74
2023-03-17T06:12:45.335Z,0.73
2023-03-17T06:13:45.318Z,0.69
2023-03-17T06:14:45.299Z,0.73
2023-03-17T06:15:45.307Z,0.77
2023-03-17T06:16:45.270Z,0.81
2023-03-17T06:17:45.276Z,0.83
2023-03-17T06:18:45.281Z,0.87
2023-03-17T06:19:45.764Z,0.88
2023-03-17T06:20:45.238Z,0.92
2023-03-17T06:21:45.224Z,0.94
2023-03-17T06:23:02.383Z,0.96
2023-03-17T06:23:46.212Z,0.91
2023-03-17T06:24:45.177Z,0.95
2023-03-17T06:25:45.157Z,1.01
2023-03-17T06:26:45.151Z,1.04
2023-03-17T06:27:45.147Z,1.06
2023-03-17T06:28:45.125Z,1.12
2023-03-17T06:29:45.120Z,1.19
2023-03-17T06:30:45.156Z,1.20
2023-03-17T06:31:45.088Z,1.38
2023-03-17T06:32:45.124Z,1.71
2023-03-17T06:33:45.052Z,2.18
2023-03-17T06:34:45.065Z,2.64
2023-03-17T06:35:45.078Z,3.18
2023-03-17T06:36:45.024Z,3.84
2023-03-17T06:37:45.015Z,4.68
2023-03-17T06:38:44.988Z,5.69
2023-03-17T06:39:44.973Z,6.67
2023-03-17T06:40:44.968Z,7.18
2023-03-17T06:41:44.958Z,7.24
2023-03-17T06:42:44.948Z,7.56
2023-03-17T06:43:44.926Z,8.01
2023-03-17T06:44:44.921Z,8.46
2023-03-17T06:45:44.899Z,8.94
2023-03-17T06:46:44.993Z,9.28
2023-03-17T06:47:44.884Z,9.26
2023-03-17T06:48:44.863Z,9.87
2023-03-17T06:49:44.855Z,10.46
2023-03-17T06:50:44.863Z,10.94
2023-03-17T06:51:44.827Z,10.34
2023-03-17T06:52:46.720Z,9.92
2023-03-17T06:53:44.799Z,10.05
2023-03-17T06:54:44.786Z,10.64
2023-03-17T06:55:44.772Z,10.72
2023-03-17T06:56:44.755Z,10.13
2023-03-17T06:57:44.760Z,9.84
2023-03-17T06:58:44.726Z,9.77
2023-03-17T06:59:44.727Z,9.61
2023-03-17T07:00:44.703Z,9.29
2023-03-17T07:01:44.722Z,9.03
2023-03-17T07:02:44.674Z,8.99
2023-03-17T07:03:44.670Z,9.04
2023-03-17T07:04:44.714Z,8.76
2023-03-17T07:05:44.636Z,8.44
2023-03-17T07:06:44.646Z,8.03
2023-03-17T07:07:44.618Z,7.88
2023-03-17T07:08:44.597Z,7.73
2023-03-17T07:09:44.588Z,7.31
2023-03-17T07:10:44.577Z,7.35
2023-03-17T07:11:44.566Z,7.63
2023-03-17T07:12:44.594Z,7.87
2023-03-17T07:13:44.533Z,8.10
2023-03-17T07:14:44.519Z,8.19
2023-03-17T07:15:44.544Z,8.06
2023-03-17T07:16:44.604Z,8.15
2023-03-17T07:17:44.487Z,8.37
2023-03-17T07:18:44.471Z,8.41
2023-03-17T07:19:44.480Z,8.10
2023-03-17T07:20:44.448Z,8.26
2023-03-17T07:21:46.901Z,8.49
2023-03-17T07:22:44.452Z,8.58
2023-03-17T07:23:44.403Z,8.46
2023-03-17T07:24:44.391Z,8.28
2023-03-17T07:25:44.390Z,8.33
2023-03-17T07:26:44.396Z,8.41
2023-03-17T07:27:44.372Z,8.53
2023-03-17T07:28:44.359Z,8.53
2023-03-17T07:29:44.340Z,8.64
2023-03-17T07:30:44.320Z,8.66
2023-03-17T07:31:44.354Z,8.66
2023-03-17T07:32:44.326Z,8.74
2023-03-17T07:33:44.278Z,8.87
2023-03-17T07:34:44.272Z,8.84
2023-03-17T07:35:44.308Z,8.81
2023-03-17T07:36:44.237Z,8.89
2023-03-17T07:37:44.233Z,9.04
2023-03-17T07:38:44.291Z,9.08
2023-03-17T07:39:44.214Z,8.99
2023-03-17T07:40:44.196Z,9.02
2023-03-17T07:41:44.322Z,8.95
2023-03-17T07:42:44.158Z,9.06
2023-03-17T07:43:44.154Z,9.11
2023-03-17T07:44:44.181Z,9.14
2023-03-17T07:45:44.179Z,8.99
2023-03-17T07:46:44.127Z,8.92
2023-03-17T07:47:44.092Z,8.69
2023-03-17T07:48:44.138Z,8.52
2023-03-17T07:49:44.146Z,8.31
2023-03-17T07:50:44.050Z,8.28
2023-03-17T07:51:44.058Z,8.33
2023-03-17T07:52:44.025Z,8.38
2023-03-17T07:53:44.008Z,8.41
2023-03-17T07:54:44.037Z,8.44
2023-03-17T07:55:43.993Z,8.51
2023-03-17T07:56:43.999Z,8.55
2023-03-17T07:57:44.043Z,8.51
2023-03-17T07:58:43.959Z,8.48
2023-03-17T07:59:43.951Z,8.49
2023-03-17T08:00:43.929Z,8.64
2023-03-17T08:01:43.949Z,8.85
2023-03-17T08:02:44.008Z,8.95
2023-03-17T08:03:43.925Z,9.04
2023-03-17T08:04:43.882Z,9.16
2023-03-17T08:05:43.863Z,9.40
2023-03-17T08:06:43.864Z,9.66
2023-03-17T08:07:43.862Z,9.74
2023-03-17T08:08:43.856Z,9.89
2023-03-17T08:09:43.810Z,9.94
2023-03-17T08:10:43.837Z,10.15
2023-03-17T08:11:43.816Z,10.30
2023-03-17T08:12:43.827Z,10.72
2023-03-17T08:13:43.796Z,11.17
2023-03-17T08:14:43.759Z,11.40
2023-03-17T08:15:43.743Z,11.72
2023-03-17T08:16:43.818Z,11.91
2023-03-17T08:17:43.739Z,12.04
2023-03-17T08:18:43.730Z,12.13
2023-03-17T08:19:43.736Z,12.31
2023-03-17T08:20:43.683Z,12.28
2023-03-17T08:21:43.677Z,12.15
2023-03-17T08:22:43.689Z,12.13
2023-03-17T08:23:43.686Z,12.13
2023-03-17T08:24:43.631Z,11.91
2023-03-17T08:25:43.676Z,11.90
2023-03-17T08:26:43.640Z,11.95
2023-03-17T08:27:43.620Z,12.00
2023-03-17T08:28:43.595Z,12.13
2023-03-17T08:29:43.571Z,12.10
2023-03-17T08:30:43.668Z,12.31
2023-03-17T08:31:46.328Z,12.46
2023-03-17T08:32:43.621Z,12.39
2023-03-17T08:33:43.527Z,12.45
2023-03-17T08:34:43.503Z,12.45
2023-03-17T08:35:43.516Z,12.42
2023-03-17T08:36:43.486Z,12.43
2023-03-17T08:37:43.477Z,12.45
2023-03-17T08:38:43.469Z,12.31
2023-03-17T08:39:43.460Z,12.24
2023-03-17T08:40:43.429Z,12.12
2023-03-17T08:41:43.423Z,12.06
2023-03-17T08:42:43.422Z,12.02
2023-03-17T08:43:43.392Z,11.97
2023-03-17T08:44:44.169Z,11.97
2023-03-17T08:45:43.463Z,11.90
2023-03-17T08:46:43.349Z,12.00
2023-03-17T08:47:43.330Z,12.12
2023-03-17T08:48:43.323Z,12.25
2023-03-17T08:49:43.309Z,12.28
2023-03-17T08:50:43.299Z,12.22
2023-03-17T08:51:43.288Z,12.27
2023-03-17T08:52:43.270Z,12.32
2023-03-17T08:53:43.272Z,12.29
2023-03-17T08:54:43.250Z,12.42
2023-03-17T08:55:43.257Z,12.61
2023-03-17T08:56:43.245Z,12.68
2023-03-17T08:57:43.209Z,12.68
2023-03-17T08:58:43.226Z,12.78
2023-03-17T08:59:43.179Z,12.82
2023-03-17T09:00:43.159Z,12.85
2023-03-17T09:01:43.252Z,12.82
2023-03-17T09:02:43.273Z,12.95
2023-03-17T09:03:43.137Z,13.39
2023-03-17T09:04:43.120Z,13.67
2023-03-17T09:05:43.112Z,13.81
2023-03-17T09:07:01.327Z,14.30
2023-03-17T09:07:44.170Z,14.73
2023-03-17T09:08:43.066Z,15.03
2023-03-17T09:09:43.050Z,15.15
2023-03-17T09:10:44.342Z,15.29
2023-03-17T09:11:43.026Z,15.61
2023-03-17T09:12:43.023Z,15.97
2023-03-17T09:13:43.000Z,16.42
2023-03-17T09:14:44.510Z,16.78
2023-03-17T09:15:43.072Z,16.84
2023-03-17T09:16:42.955Z,16.89
2023-03-17T09:17:42.946Z,16.81
2023-03-17T09:18:42.929Z,16.76
2023-03-17T09:19:42.919Z,16.75
2023-03-17T09:20:42.912Z,16.53
2023-03-17T09:21:42.898Z,16.15
2023-03-17T09:22:42.895Z,15.80
2023-03-17T09:23:42.875Z,15.61
2023-03-17T09:24:42.856Z,15.21
2023-03-17T09:25:42.841Z,14.77
2023-03-17T09:26:42.827Z,14.86
2023-03-17T09:27:42.823Z,14.89
2023-03-17T09:28:42.881Z,14.96
2023-03-17T09:29:42.793Z,14.99
2023-03-17T09:30:42.826Z,14.97
2023-03-17T09:31:42.828Z,14.86
2023-03-17T09:32:42.779Z,14.82
2023-03-17T09:33:42.741Z,15.00
2023-03-17T09:34:42.724Z,15.00
2023-03-17T09:35:42.787Z,15.10
2023-03-17T09:36:42.705Z,15.25
2023-03-17T09:37:42.690Z,15.65
2023-03-17T09:38:42.686Z,15.80
2023-03-17T09:39:42.666Z,16.17
2023-03-17T09:40:42.644Z,16.60
2023-03-17T09:41:42.641Z,16.31
2023-03-17T09:42:42.618Z,16.04
2023-03-17T09:43:42.614Z,16.16
2023-03-17T09:44:42.599Z,16.24
2023-03-17T09:45:43.755Z,16.12
2023-03-17T09:46:42.685Z,15.68
2023-03-17T09:47:43.014Z,15.46
2023-03-17T09:48:42.541Z,15.11
2023-03-17T09:49:42.552Z,15.06
2023-03-17T09:50:42.519Z,15.03
2023-03-17T09:51:42.512Z,14.92
2023-03-17T09:52:42.516Z,14.91
2023-03-17T09:53:42.478Z,14.91
2023-03-17T09:54:42.473Z,14.92
2023-03-17T09:55:42.466Z,15.21
2023-03-17T09:56:42.449Z,15.54
2023-03-17T09:57:42.467Z,15.82
2023-03-17T09:58:42.419Z,15.97
2023-03-17T09:59:42.398Z,16.15
2023-03-17T10:00:42.392Z,16.26
2023-03-17T10:01:42.454Z,16.29
2023-03-17T10:02:42.402Z,16.29
2023-03-17T10:03:42.356Z,16.17
2023-03-17T10:04:42.350Z,16.09
2023-03-17T10:05:42.386Z,16.15
2023-03-17T10:06:42.315Z,16.05
2023-03-17T10:07:42.316Z,15.67
2023-03-17T10:08:42.286Z,15.44
2023-03-17T10:09:42.274Z,15.22
2023-03-17T10:10:42.266Z,14.92
2023-03-17T10:11:42.274Z,14.77
2023-03-17T10:12:42.249Z,14.78
2023-03-17T10:13:42.230Z,14.69
2023-03-17T10:14:42.219Z,14.55
2023-03-17T10:15:42.227Z,14.48
2023-03-17T10:16:42.201Z,14.62
2023-03-17T10:17:42.268Z,14.73
2023-03-17T10:18:42.209Z,14.72
2023-03-17T10:19:42.145Z,14.63
2023-03-17T10:20:42.132Z,14.58
2023-03-17T10:21:42.128Z,14.66
2023-03-17T10:22:42.106Z,14.55
2023-03-17T10:23:42.096Z,14.62
2023-03-17T10:24:42.085Z,14.40
2023-03-17T10:25:42.071Z,14.28
2023-03-17T10:26:42.112Z,14.11
2023-03-17T10:27:42.043Z,13.99
2023-03-17T10:28:42.035Z,14.03
2023-03-17T10:29:42.037Z,13.97
2023-03-17T10:30:42.011Z,13.89
2023-03-17T10:31:42.051Z,13.93
2023-03-17T10:32:41.980Z,14.10
2023-03-17T10:33:41.972Z,14.20
2023-03-17T10:34:41.983Z,14.17
2023-03-17T10:35:41.952Z,14.23
2023-03-17T10:36:41.923Z,14.32
2023-03-17T10:37:43.889Z,14.23
2023-03-17T10:38:41.903Z,14.04
2023-03-17T10:39:41.885Z,14.05
2023-03-17T10:40:41.879Z,14.17
2023-03-17T10:41:41.855Z,14.25
2023-03-17T10:42:41.845Z,14.35
2023-03-17T10:43:41.832Z,14.43
2023-03-17T10:44:41.822Z,14.50
2023-03-17T10:45:44.203Z,14.40
2023-03-17T10:46:41.823Z,14.32
2023-03-17T10:47:41.787Z,14.37
2023-03-17T10:48:41.773Z,14.40
2023-03-17T10:49:41.763Z,14.41
2023-03-17T10:50:41.773Z,14.43
2023-03-17T10:51:41.728Z,14.45
2023-03-17T10:52:41.749Z,14.30
2023-03-17T10:53:41.702Z,14.14
2023-03-17T10:54:41.700Z,14.05
2023-03-17T10:55:41.683Z,14.18
2023-03-17T10:56:41.670Z,14.20
2023-03-17T10:57:41.663Z,14.17
2023-03-17T10:58:41.715Z,14.22
2023-03-17T10:59:43.400Z,14.36
2023-03-17T11:00:41.626Z,14.53
2023-03-17T11:01:41.607Z,14.58
2023-03-17T11:02:41.594Z,14.62
2023-03-17T11:03:41.639Z,14.55
2023-03-17T11:04:41.568Z,14.50
2023-03-17T11:05:41.558Z,14.43
2023-03-17T11:06:41.573Z,14.53
2023-03-17T11:07:41.529Z,14.54
2023-03-17T11:08:41.531Z,14.60
2023-03-17T11:09:41.500Z,14.59
2023-03-17T11:10:41.518Z,14.55
2023-03-17T11:11:41.482Z,14.58
2023-03-17T11:12:41.474Z,14.70
2023-03-17T11:13:41.452Z,14.77
2023-03-17T11:14:41.441Z,14.65
2023-03-17T11:15:41.431Z,14.53
2023-03-17T11:16:41.467Z,14.55
2023-03-17T11:17:41.417Z,14.63
2023-03-17T11:18:41.383Z,14.54
2023-03-17T11:19:41.381Z,14.51
2023-03-17T11:20:41.362Z,14.44
2023-03-17T11:21:41.368Z,14.47
2023-03-17T11:22:41.362Z,14.36
2023-03-17T11:23:41.344Z,14.37
2023-03-17T11:24:41.315Z,14.36
2023-03-17T11:25:41.295Z,14.48
2023-03-17T11:26:41.292Z,14.50
2023-03-17T11:27:41.272Z,14.58
2023-03-17T11:28:41.294Z,14.66
2023-03-17T11:29:41.247Z,14.81
2023-03-17T11:30:41.244Z,14.94
2023-03-17T11:31:41.221Z,14.94
2023-03-17T11:32:41.241Z,14.92
2023-03-17T11:33:41.206Z,15.02
2023-03-17T11:34:41.182Z,15.00
2023-03-17T11:35:41.225Z,15.10
2023-03-17T11:36:41.176Z,14.99
2023-03-17T11:37:41.151Z,14.99
2023-03-17T11:38:41.157Z,14.96
2023-03-17T11:39:41.131Z,15.03
2023-03-17T11:40:41.112Z,15.15
2023-03-17T11:41:41.103Z,15.19
2023-03-17T11:42:41.080Z,15.29
2023-03-17T11:43:41.076Z,15.35
2023-03-17T11:44:41.063Z,15.39
2023-03-17T11:45:41.145Z,15.44
2023-03-17T11:46:41.059Z,15.43
2023-03-17T11:47:41.015Z,15.28
2023-03-17T11:48:41.001Z,15.29
2023-03-17T11:49:41.002Z,15.27
2023-03-17T11:50:40.986Z,15.21
2023-03-17T11:51:40.978Z,15.21
2023-03-17T11:52:40.970Z,15.22
2023-03-17T11:53:40.953Z,15.27
2023-03-17T11:54:40.957Z,15.24
2023-03-17T11:55:40.925Z,15.19
2023-03-17T11:56:40.898Z,15.24
2023-03-17T11:57:40.889Z,15.21
2023-03-17T11:58:40.888Z,15.31
2023-03-17T11:59:40.857Z,15.52
2023-03-17T12:00:42.750Z,15.61
2023-03-17T12:01:40.847Z,15.64
2023-03-17T12:02:40.821Z,15.72
2023-03-17T12:03:40.910Z,15.68
2023-03-17T12:04:40.894Z,15.82
2023-03-17T12:05:40.784Z,15.86
2023-03-17T12:06:40.781Z,15.94
2023-03-17T12:07:40.762Z,15.90
2023-03-17T12:08:40.751Z,15.80
2023-03-17T12:09:40.731Z,15.58
2023-03-17T12:10:40.758Z,15.59
2023-03-17T12:11:40.711Z,15.59
2023-03-17T12:12:40.691Z,15.70
2023-03-17T12:13:40.679Z,15.67
2023-03-17T12:14:40.674Z,15.59
2023-03-17T12:15:40.718Z,15.58
2023-03-17T12:16:40.648Z,15.43
2023-03-17T12:17:40.635Z,15.42
2023-03-17T12:18:40.622Z,15.40
2023-03-17T12:19:40.608Z,15.40
2023-03-17T12:20:40.596Z,15.42
2023-03-17T12:21:40.581Z,15.42
2023-03-17T12:22:40.573Z,15.37
2023-03-17T12:23:40.568Z,15.40
2023-03-17T12:24:40.556Z,15.42
2023-03-17T12:25:40.557Z,15.49
2023-03-17T12:26:40.548Z,15.54
2023-03-17T12:27:40.499Z,15.62
2023-03-17T12:28:40.498Z,15.73
2023-03-17T12:29:40.481Z,15.79
2023-03-17T12:30:40.471Z,15.68
2023-03-17T12:31:40.447Z,15.82
2023-03-17T12:32:40.491Z,15.95
2023-03-17T12:33:40.433Z,16.09
2023-03-17T12:34:40.426Z,16.08
2023-03-17T12:35:40.448Z,16.15
2023-03-17T12:36:40.395Z,16.20
2023-03-17T12:37:40.377Z,16.21
2023-03-17T12:38:40.405Z,16.17
2023-03-17T12:39:40.359Z,16.26
2023-03-17T12:40:40.338Z,16.29
2023-03-17T12:41:40.337Z,16.42
2023-03-17T12:42:40.362Z,16.43
2023-03-17T12:43:40.307Z,16.56
2023-03-17T12:44:40.329Z,16.54
2023-03-17T12:45:40.287Z,16.51
2023-03-17T12:46:40.353Z,16.53
2023-03-17T12:47:40.240Z,16.50
2023-03-17T12:48:40.244Z,16.50
2023-03-17T12:49:40.227Z,16.53
2023-03-17T12:50:40.203Z,16.57
2023-03-17T12:51:40.190Z,16.64
2023-03-17T12:52:40.181Z,16.69
2023-03-17T12:53:40.165Z,16.74
2023-03-17T12:54:40.152Z,16.74
2023-03-17T12:55:40.141Z,16.79
2023-03-17T12:56:40.133Z,16.76
2023-03-17T12:57:40.122Z,16.72
2023-03-17T12:58:40.125Z,16.66
2023-03-17T12:59:40.098Z,16.74
2023-03-17T13:00:40.088Z,16.78
2023-03-17T13:01:40.110Z,16.93
2023-03-17T13:02:40.052Z,17.05
2023-03-17T13:03:40.268Z,17.16
2023-03-17T13:04:40.026Z,17.29
2023-03-17T13:05:40.016Z,17.31
2023-03-17T13:06:39.995Z,17.34
2023-03-17T13:07:39.990Z,17.29
2023-03-17T13:08:39.995Z,17.31